KMTW/MTW METAR and TAF weather

Enter ICAO airport designator
Station Type Date Time Source
KMTW METAR 2019/08/25 12:56 UTC NOAA

KMTW 251256Z AUTO 15009KT 10SM BKN032 20/14 A3021 RMK AO2 SLP231 T02000139


Station Type Date Time Source
KMTW Decoded METAR 2019/08/25 12:56 UTC NOAA

Station name not available
Aug 25, 2019 - 08:56 AM EDT / 2019.08.25 1256 UTC
Wind: from the SSE (150 degrees) at 10 MPH (9 KT):0
Visibility: 10 mile(s):0
Sky conditions: mostly cloudy
Temperature: 68.0 F (20.0 C)
Dew Point: 57.0 F (13.9 C)
Relative Humidity: 67%
Pressure (altimeter): 30.21 in. Hg (1023 hPa)
ob: KMTW 251256Z AUTO 15009KT 10SM BKN032 20/14 A3021 RMK AO2 SLP231 T02000139
cycle: 13

Station Type Date Time Source
KMTW TAF 2019/08/25 12:24 UTC NOAA

TAF KMTW 251121Z 2512/2612 13003KT P6SM SCT200
FM251500 15008KT P6SM SCT090
FM251900 14010G15KT P6SM SCT120
FM252200 13005KT P6SM SCT040 BKN080
FM260800 13007KT P6SM BKN050

Example: see airport list